Time;durP1;ratioP1;P1;durP2;ratioP2;P2;SDS_P1;SDS_P2;PMS_P1;PMS_P2;Temp;Humidity;BMP_temperature;BMP_pressure;BME280_temperature;BME280_humidity;BME280_pressure;Samples;Min_cycle;Max_cycle;Signal;HPM_P1;HPM_P2
2023/06/08 00:01:25;;;;;;;4.90;2.37;;;;;;;20.65;42.84;101630.03;4892279;28;97168;-48
2023/06/08 00:03:52;;;;;;;2.97;2.50;;;;;;;20.63;43.06;101632.63;4892871;28;97499;-49
2023/06/08 00:06:20;;;;;;;4.00;2.67;;;;;;;20.60;43.15;101635.72;4893333;28;97469;-49
2023/06/08 00:08:46;;;;;;;3.50;2.37;;;;;;;20.56;43.13;101633.28;4892314;28;97433;-48
2023/06/08 00:11:11;;;;;;;4.40;2.70;;;;;;;20.52;43.28;101634.88;4892875;28;97211;-48
2023/06/08 00:13:37;;;;;;;2.50;2.03;;;;;;;20.53;43.40;101633.59;4890684;28;97296;-48
2023/06/08 00:16:03;;;;;;;4.43;2.80;;;;;;;20.52;43.32;101632.84;4892039;28;99327;-48
2023/06/08 00:18:30;;;;;;;5.33;2.43;;;;;;;20.49;43.28;101631.13;4891285;28;98695;-48
2023/06/08 00:20:56;;;;;;;4.93;3.00;;;;;;;20.46;43.48;101640.59;4891394;28;97079;-48
2023/06/08 00:23:21;;;;;;;4.93;2.83;;;;;;;20.45;43.52;101641.88;4891350;28;97172;-48
2023/06/08 00:25:47;;;;;;;3.40;2.43;;;;;;;20.41;43.74;101649.84;4891075;28;98517;-48
2023/06/08 00:28:13;;;;;;;4.10;2.50;;;;;;;20.34;43.78;101633.69;4891582;28;97229;-49
2023/06/08 00:30:38;;;;;;;6.37;2.50;;;;;;;20.25;43.85;101628.53;4893940;28;97296;-48
2023/06/08 00:33:04;;;;;;;3.23;2.40;;;;;;;20.21;43.96;101641.31;4892876;28;97583;-48
2023/06/08 00:35:30;;;;;;;2.67;2.07;;;;;;;20.16;43.97;101635.25;4891086;28;98910;-49
2023/06/08 00:37:55;;;;;;;3.83;2.43;;;;;;;20.10;44.34;101637.41;4891440;28;98651;-48
2023/06/08 00:40:21;;;;;;;6.13;3.00;;;;;;;20.03;44.43;101628.91;4892339;28;97434;-48
2023/06/08 00:42:46;;;;;;;5.67;2.93;;;;;;;19.96;44.46;101629.56;4892366;28;97130;-48
2023/06/08 00:45:11;;;;;;;3.70;2.77;;;;;;;19.88;44.74;101628.66;4894023;28;97781;-49
2023/06/08 00:47:37;;;;;;;3.13;2.60;;;;;;;19.82;44.73;101620.38;4892385;28;97114;-48
2023/06/08 00:50:07;;;;;;;4.90;2.80;;;;;;;19.72;44.91;101608.13;4893924;28;97209;-48
2023/06/08 00:52:32;;;;;;;8.40;2.87;;;;;;;19.63;45.14;101610.56;4889081;28;96838;-49
2023/06/08 00:55:00;;;;;;;7.83;3.00;;;;;;;19.54;45.14;101614.50;4893485;28;97317;-48
2023/06/08 00:57:28;;;;;;;4.63;3.43;;;;;;;19.46;45.47;101608.03;4892173;28;97221;-48
2023/06/08 00:59:55;;;;;;;7.43;2.97;;;;;;;19.43;45.54;101609.88;4891754;28;96888;-48
2023/06/08 01:02:23;;;;;;;2.93;2.60;;;;;;;19.38;45.76;101604.34;4889316;28;97458;-48
2023/06/08 01:04:50;;;;;;;4.57;2.73;;;;;;;19.33;45.72;101600.31;4891665;28;97211;-48
2023/06/08 01:07:40;;;;;;;6.00;2.70;;;;;;;19.32;46.86;101609.25;4892292;28;97528;-49
2023/06/08 01:10:15;;;;;;;6.53;2.93;;;;;;;19.28;46.66;101609.56;4891454;28;98002;-49
2023/06/08 01:12:50;;;;;;;4.07;2.60;;;;;;;19.26;46.47;101605.78;4891138;28;96677;-48
2023/06/08 01:15:21;;;;;;;5.47;2.50;;;;;;;19.28;46.37;101611.59;4891084;28;97463;-49
2023/06/08 01:17:52;;;;;;;6.03;2.80;;;;;;;19.26;46.20;101605.78;4891231;28;97456;-48
2023/06/08 01:21:02;;;;;;;4.53;3.50;;;;;;;19.22;47.05;101602.56;4891622;28;97009;-49
2023/06/08 01:23:37;;;;;;;5.50;3.00;;;;;;;19.15;47.02;101606.69;4833937;28;97540;-48
2023/06/08 01:26:04;;;;;;;5.37;2.90;;;;;;;19.14;46.29;101607.97;4891234;28;97621;-49
2023/06/08 01:28:30;;;;;;;3.33;2.53;;;;;;;19.13;46.56;101612.03;4891322;28;96914;-49
2023/06/08 01:30:56;;;;;;;3.80;2.90;;;;;;;19.15;46.54;101609.50;4891221;28;96999;-48
2023/06/08 01:33:25;;;;;;;5.73;2.70;;;;;;;19.18;46.74;101614.00;4893227;28;97461;-48
2023/06/08 01:35:59;;;;;;;5.30;3.43;;;;;;;19.20;47.04;101611.44;4893124;28;98287;-49
2023/06/08 01:38:48;;;;;;;5.93;3.03;;;;;;;19.19;47.43;101617.56;4894119;28;97523;-48
2023/06/08 01:41:26;;;;;;;5.73;3.10;;;;;;;19.13;47.42;101614.09;4892203;28;97287;-49
2023/06/08 01:43:52;;;;;;;3.60;2.63;;;;;;;19.09;46.78;101617.16;4889698;28;97307;-49
2023/06/08 01:46:21;;;;;;;5.63;3.23;;;;;;;19.08;46.99;101610.09;4892406;28;98527;-49
2023/06/08 01:48:49;;;;;;;5.40;3.20;;;;;;;19.06;47.00;101615.44;4889276;28;97112;-48
2023/06/08 01:51:15;;;;;;;6.30;3.30;;;;;;;19.05;47.13;101613.94;4891793;28;97081;-49
2023/06/08 01:53:41;;;;;;;3.63;2.50;;;;;;;19.07;47.29;101611.38;4892991;28;96889;-48
2023/06/08 01:56:07;;;;;;;4.00;2.97;;;;;;;19.08;47.24;101618.47;4889187;28;96904;-49
2023/06/08 01:58:32;;;;;;;7.70;3.80;;;;;;;19.06;47.44;101615.44;4890718;28;96779;-48
2023/06/08 02:00:57;;;;;;;8.63;3.20;;;;;;;18.99;47.39;101613.25;4889980;28;104628;-48
2023/06/08 02:03:23;;;;;;;6.40;2.70;;;;;;;18.96;47.67;101617.09;4890014;28;97460;-49
2023/06/08 02:05:48;;;;;;;7.93;3.40;;;;;;;18.99;47.40;101609.72;4887780;28;106173;-49
2023/06/08 02:08:13;;;;;;;5.53;3.47;;;;;;;18.99;47.47;101606.91;4891788;28;96952;-48
2023/06/08 02:10:39;;;;;;;7.37;3.10;;;;;;;18.96;47.60;101617.09;4890593;28;97474;-49
2023/06/08 02:13:04;;;;;;;4.70;3.33;;;;;;;18.91;47.62;101608.81;4889370;28;97693;-48
2023/06/08 02:15:30;;;;;;;6.40;3.03;;;;;;;18.89;47.63;101612.13;4889024;28;97014;-48
2023/06/08 02:17:58;;;;;;;7.40;3.47;;;;;;;18.90;47.73;101610.09;4888986;28;97366;-48
2023/06/08 02:20:25;;;;;;;4.80;3.23;;;;;;;18.85;47.75;101608.13;4893435;28;97013;-48
2023/06/08 02:22:51;;;;;;;5.23;3.60;;;;;;;18.83;47.80;101614.22;4890568;28;96917;-48
2023/06/08 02:25:16;;;;;;;5.50;3.13;;;;;;;18.79;47.85;101613.00;4889484;28;97860;-48
2023/06/08 02:27:43;;;;;;;4.87;3.67;;;;;;;18.74;47.88;101611.06;4892379;28;96895;-48
2023/06/08 02:30:12;;;;;;;10.27;3.20;;;;;;;18.70;48.10;101608.56;4887671;28;97195;-57
2023/06/08 02:32:41;;;;;;;5.23;3.50;;;;;;;18.67;48.07;101604.78;4892111;28;97204;-48
2023/06/08 02:35:07;;;;;;;5.30;3.30;;;;;;;18.62;48.14;101602.84;4890055;28;97335;-49
2023/06/08 02:37:33;;;;;;;5.67;3.50;;;;;;;18.60;48.23;101610.22;4890343;28;96928;-48
2023/06/08 02:40:00;;;;;;;5.57;3.50;;;;;;;18.58;48.26;101610.00;4888856;28;97137;-49
2023/06/08 02:42:25;;;;;;;7.40;3.40;;;;;;;18.54;48.27;101601.91;4889414;28;97464;-48
2023/06/08 02:44:51;;;;;;;7.30;3.30;;;;;;;18.52;48.40;101600.94;4890656;28;104583;-48
2023/06/08 02:47:18;;;;;;;5.10;3.63;;;;;;;18.46;48.31;101603.03;4889585;28;97564;-48
2023/06/08 02:49:43;;;;;;;4.87;3.20;;;;;;;18.34;48.52;101602.38;4892516;28;100211;-48
2023/06/08 02:52:09;;;;;;;7.63;3.40;;;;;;;18.29;48.54;101599.66;4890797;28;97517;-49
2023/06/08 02:54:34;;;;;;;6.77;3.40;;;;;;;18.23;48.85;101591.38;4889804;28;98436;-49
2023/06/08 02:57:00;;;;;;;4.60;3.40;;;;;;;18.20;48.84;101603.53;4891900;28;96781;-48
2023/06/08 02:59:27;;;;;;;4.70;3.53;;;;;;;18.15;48.87;101586.91;4890202;28;98421;-48
2023/06/08 03:01:53;;;;;;;3.90;3.23;;;;;;;18.12;49.04;101590.72;4888316;28;97138;-49
2023/06/08 03:04:22;;;;;;;7.83;3.50;;;;;;;18.10;49.45;101593.28;4891632;28;97467;-48
2023/06/08 03:06:53;;;;;;;7.53;3.90;;;;;;;18.07;49.34;101597.09;4890573;28;97381;-48
2023/06/08 03:09:22;;;;;;;5.27;3.60;;;;;;;18.07;49.60;101605.44;4886734;28;96837;-48
2023/06/08 03:11:48;;;;;;;7.00;3.80;;;;;;;18.11;49.52;101608.72;4887122;28;96695;-49
2023/06/08 03:14:15;;;;;;;7.93;3.70;;;;;;;18.13;49.56;101617.31;4886583;28;97321;-49
2023/06/08 03:16:41;;;;;;;7.30;3.97;;;;;;;18.13;49.56;101608.94;4889049;28;96905;-48
2023/06/08 03:19:06;;;;;;;5.67;4.03;;;;;;;18.15;49.47;101611.97;4888370;28;97265;-49
2023/06/08 03:21:32;;;;;;;4.10;3.37;;;;;;;18.12;49.42;101607.44;4891579;28;97125;-48
2023/06/08 03:23:57;;;;;;;7.40;4.20;;;;;;;18.01;49.67;101601.97;4889438;28;97266;-48
2023/06/08 03:26:23;;;;;;;6.77;3.80;;;;;;;17.94;49.75;101598.47;4890287;28;97903;-48
2023/06/08 03:28:48;;;;;;;7.37;4.43;;;;;;;17.91;49.76;101598.75;4889139;28;97024;-49
2023/06/08 03:31:13;;;;;;;6.50;3.70;;;;;;;17.94;49.88;101608.88;4889532;28;97182;-49
2023/06/08 03:33:39;;;;;;;6.37;3.90;;;;;;;17.94;49.92;101606.84;4888715;28;97735;-48
2023/06/08 03:36:05;;;;;;;7.03;3.80;;;;;;;17.94;49.84;101604.06;4885167;28;97314;-49
2023/06/08 03:38:31;;;;;;;7.27;3.53;;;;;;;17.86;50.07;101594.78;4886600;28;97595;-48
2023/06/08 03:40:57;;;;;;;6.27;3.97;;;;;;;17.83;50.14;101590.25;4888463;28;97001;-49
2023/06/08 03:43:22;;;;;;;8.30;4.13;;;;;;;17.81;50.29;101584.44;4888208;28;98525;-48
2023/06/08 03:45:47;;;;;;;8.50;4.20;;;;;;;17.82;50.22;101590.75;4890396;28;97409;-48
2023/06/08 03:48:13;;;;;;;9.77;4.70;;;;;;;17.79;50.27;101580.66;4889515;28;97230;-48
2023/06/08 03:50:38;;;;;;;9.50;4.63;;;;;;;17.73;50.43;101575.16;4886702;28;97480;-48
2023/06/08 03:53:03;;;;;;;9.00;4.47;;;;;;;17.75;50.47;101583.75;4889402;28;100712;-48
2023/06/08 03:55:29;;;;;;;4.30;3.40;;;;;;;17.80;50.53;101591.25;4881881;28;99269;-49
2023/06/08 03:57:54;;;;;;;6.07;4.07;;;;;;;17.84;50.74;101594.50;4887426;28;97082;-48
2023/06/08 04:00:20;;;;;;;12.70;4.23;;;;;;;17.88;50.54;101595.00;4887119;28;97282;-48
2023/06/08 04:02:46;;;;;;;6.47;4.30;;;;;;;17.88;50.61;101592.22;4887416;28;98115;-49
2023/06/08 04:05:13;;;;;;;6.63;4.07;;;;;;;17.87;50.52;101592.72;4883867;28;96861;-48
2023/06/08 04:07:40;;;;;;;6.80;4.33;;;;;;;17.87;50.65;101598.28;4886783;28;96837;-48
2023/06/08 04:10:06;;;;;;;6.27;3.90;;;;;;;17.91;50.53;101605.09;4888628;28;97704;-49
2023/06/08 04:12:32;;;;;;;5.83;4.37;;;;;;;17.90;50.73;101594.47;4887771;28;96944;-49
2023/06/08 04:14:58;;;;;;;5.40;3.90;;;;;;;17.91;50.80;101599.50;4890502;28;97115;-49
2023/06/08 04:17:27;;;;;;;8.10;4.53;;;;;;;17.98;50.60;101603.75;4892764;28;97401;-49
2023/06/08 04:19:53;;;;;;;6.60;4.63;;;;;;;17.97;50.74;101591.84;4892254;28;97131;-48
2023/06/08 04:22:18;;;;;;;9.60;4.70;;;;;;;18.01;50.84;101602.72;4891845;28;98018;-48
2023/06/08 04:24:44;;;;;;;6.93;4.13;;;;;;;18.01;50.86;101599.19;4893241;28;107828;-48
2023/06/08 04:27:10;;;;;;;9.13;4.50;;;;;;;17.91;51.07;101584.84;4892737;28;101573;-49
2023/06/08 04:29:35;;;;;;;5.63;4.13;;;;;;;17.86;51.32;101597.56;4891586;28;96986;-48
2023/06/08 04:32:00;;;;;;;7.60;4.13;;;;;;;17.88;51.86;101602.59;4889829;28;97607;-48
2023/06/08 04:34:26;;;;;;;5.30;4.30;;;;;;;17.93;51.42;101601.81;4889823;28;98419;-49
2023/06/08 04:36:51;;;;;;;5.13;4.40;;;;;;;17.98;51.53;101604.53;4891087;28;97087;-49
2023/06/08 04:39:17;;;;;;;6.30;4.97;;;;;;;18.05;51.58;101602.44;4891305;28;97367;-48
2023/06/08 04:41:45;;;;;;;8.10;6.03;;;;;;;18.09;51.52;101603.66;4887698;28;97335;-48
2023/06/08 04:44:13;;;;;;;7.73;4.53;;;;;;;18.11;51.41;101608.72;4889903;28;97108;-48
2023/06/08 04:46:38;;;;;;;5.43;4.73;;;;;;;18.14;51.55;101614.00;4891989;28;96767;-48
2023/06/08 04:49:04;;;;;;;11.67;5.27;;;;;;;18.19;51.66;101609.63;4892977;28;97153;-48
2023/06/08 04:51:29;;;;;;;8.10;4.97;;;;;;;18.24;51.39;101606.06;4892041;28;96862;-48
2023/06/08 04:53:56;;;;;;;7.43;4.83;;;;;;;18.20;51.39;101602.78;4891742;28;98443;-48
2023/06/08 04:56:24;;;;;;;5.27;4.50;;;;;;;18.10;51.33;101596.06;4891763;28;97736;-48
2023/06/08 04:58:49;;;;;;;7.97;4.93;;;;;;;18.01;51.67;101599.19;4889937;28;96794;-48
2023/06/08 05:01:15;;;;;;;8.20;5.60;;;;;;;17.95;51.81;101594.41;4891568;28;97330;-48
2023/06/08 05:03:40;;;;;;;13.30;5.60;;;;;;;17.95;51.69;101596.47;4892429;28;96785;-48
2023/06/08 05:06:05;;;;;;;8.67;5.10;;;;;;;17.92;51.74;101598.25;4892286;28;97954;-48
2023/06/08 05:08:31;;;;;;;9.27;5.40;;;;;;;17.89;51.90;101590.94;4891949;28;97320;-48
2023/06/08 05:10:56;;;;;;;10.17;5.70;;;;;;;17.86;51.81;101588.44;4890375;28;104350;-49
2023/06/08 05:13:21;;;;;;;6.27;5.00;;;;;;;17.90;51.91;101592.44;4889453;28;107655;-48
2023/06/08 05:15:47;;;;;;;9.60;5.93;;;;;;;17.97;52.01;101594.66;4892474;28;97311;-49
2023/06/08 05:18:12;;;;;;;8.50;6.00;;;;;;;18.04;51.88;101596.13;4891310;28;97239;-48
2023/06/08 05:20:37;;;;;;;5.90;4.63;;;;;;;18.10;51.89;101591.25;4892059;28;96860;-48
2023/06/08 05:23:03;;;;;;;9.10;5.37;;;;;;;18.16;51.70;101597.50;4891518;28;114111;-48
2023/06/08 05:25:29;;;;;;;11.17;6.43;;;;;;;18.20;51.76;101602.78;4891582;28;96918;-48
2023/06/08 05:27:55;;;;;;;6.20;5.30;;;;;;;18.18;51.80;101592.16;4889623;28;96820;-49
2023/06/08 05:30:21;;;;;;;8.13;5.10;;;;;;;18.19;51.90;101596.47;4890499;28;97261;-48
2023/06/08 05:32:46;;;;;;;6.70;5.40;;;;;;;18.25;51.69;101599.94;4890440;28;97214;-49
2023/06/08 05:35:11;;;;;;;7.53;5.27;;;;;;;18.34;51.84;101598.84;4889653;28;97058;-48
2023/06/08 05:37:36;;;;;;;7.03;6.10;;;;;;;18.39;51.78;101598.75;4891921;28;97236;-48
2023/06/08 05:40:02;;;;;;;9.33;5.70;;;;;;;18.47;51.76;101598.97;4887069;28;110784;-48
2023/06/08 05:42:28;;;;;;;12.53;7.20;;;;;;;18.51;51.67;101596.63;4891792;28;97373;-49
2023/06/08 05:44:53;;;;;;;10.97;6.23;;;;;;;18.52;51.71;101590.53;4890925;28;96791;-48
2023/06/08 05:47:18;;;;;;;8.27;5.40;;;;;;;18.57;51.67;101594.53;4887159;28;96961;-49
2023/06/08 05:49:44;;;;;;;6.87;5.40;;;;;;;18.60;51.74;101590.69;4890193;28;98689;-48
2023/06/08 05:52:09;;;;;;;11.70;6.90;;;;;;;18.59;51.65;101595.53;4889448;28;98786;-48
2023/06/08 05:54:35;;;;;;;11.23;6.07;;;;;;;18.60;51.76;101590.69;4893029;28;96888;-49
2023/06/08 05:57:01;;;;;;;6.77;5.80;;;;;;;18.60;51.73;101597.03;4892376;28;96914;-48
2023/06/08 05:59:26;;;;;;;8.07;6.47;;;;;;;18.63;51.60;101598.75;4889213;28;97739;-48
2023/06/08 06:01:52;;;;;;;8.53;6.50;;;;;;;18.68;51.63;101597.94;4891719;28;97070;-48
2023/06/08 06:04:17;;;;;;;11.90;6.60;;;;;;;18.76;51.52;101600.13;4893282;28;97148;-48
2023/06/08 06:06:42;;;;;;;10.87;6.67;;;;;;;18.79;51.41;101597.03;4890879;28;97008;-48
2023/06/08 06:09:08;;;;;;;7.33;5.80;;;;;;;18.80;51.61;101601.34;4886533;28;97183;-48
2023/06/08 06:11:33;;;;;;;10.30;5.57;;;;;;;18.86;51.70;101599.25;4891162;28;97283;-49
2023/06/08 06:13:59;;;;;;;8.80;6.37;;;;;;;18.94;51.63;101597.34;4891074;28;97412;-49
2023/06/08 06:16:24;;;;;;;7.53;6.03;;;;;;;19.01;51.46;101598.78;4892404;28;96780;-48
2023/06/08 06:18:50;;;;;;;8.50;6.70;;;;;;;19.07;51.50;101600.22;4891472;28;102830;-48
2023/06/08 06:21:16;;;;;;;10.37;6.10;;;;;;;19.18;51.48;101600.06;4891864;28;97575;-48
2023/06/08 06:23:41;;;;;;;10.03;6.57;;;;;;;19.29;51.43;101599.13;4890841;28;97232;-49
2023/06/08 06:26:07;;;;;;;9.10;6.60;;;;;;;19.38;51.32;101596.72;4888523;28;96893;-49
2023/06/08 06:28:32;;;;;;;10.23;7.63;;;;;;;19.51;51.32;101603.63;4889791;28;98452;-48
2023/06/08 06:30:58;;;;;;;13.33;7.60;;;;;;;19.63;51.10;101596.59;4891713;28;97178;-49
2023/06/08 06:33:23;;;;;;;8.53;6.30;;;;;;;19.72;50.95;101599.00;4889328;28;97166;-48
2023/06/08 06:35:50;;;;;;;8.03;6.47;;;;;;;19.81;51.07;101587.41;4888997;28;97341;-49
2023/06/08 06:38:15;;;;;;;10.07;6.53;;;;;;;19.95;51.05;101591.72;4888931;28;97745;-49
2023/06/08 06:40:41;;;;;;;10.13;6.53;;;;;;;20.07;50.44;101598.63;4894462;28;99023;-48
2023/06/08 06:43:06;;;;;;;7.83;6.30;;;;;;;20.14;50.46;101600.75;4888141;28;97674;-48
2023/06/08 06:45:32;;;;;;;9.47;7.43;;;;;;;20.16;50.56;101603.78;4889771;28;101401;-48
2023/06/08 06:47:57;;;;;;;10.23;6.90;;;;;;;20.19;50.58;101592.28;4888374;28;97175;-49
2023/06/08 06:50:22;;;;;;;9.50;6.30;;;;;;;20.25;50.48;101591.47;4890093;28;97108;-49
2023/06/08 06:52:48;;;;;;;12.13;6.60;;;;;;;20.35;50.39;101598.13;4890736;28;97381;-48
2023/06/08 06:55:13;;;;;;;11.40;6.33;;;;;;;20.43;50.48;101602.53;4889802;28;96984;-48
2023/06/08 06:57:40;;;;;;;8.50;5.97;;;;;;;20.51;50.39;101603.38;4889625;28;98488;-48
2023/06/08 07:00:10;;;;;;;10.00;6.90;;;;;;;20.58;50.05;101604.75;4889662;28;98373;-49
2023/06/08 07:02:37;;;;;;;10.87;7.00;;;;;;;20.67;50.02;101605.09;4888375;28;96983;-49
2023/06/08 07:05:07;;;;;;;14.27;6.40;;;;;;;20.73;50.23;101605.72;4891800;28;97301;-49
2023/06/08 07:07:36;;;;;;;13.70;6.93;;;;;;;20.77;50.07;101603.34;4889597;28;97827;-49
2023/06/08 07:10:02;;;;;;;13.20;7.20;;;;;;;20.82;50.17;101598.91;4890323;28;97145;-48
2023/06/08 07:12:29;;;;;;;10.13;7.13;;;;;;;20.89;50.07;101601.06;4889269;28;101710;-49
2023/06/08 07:14:54;;;;;;;11.57;7.53;;;;;;;20.95;50.05;101600.97;4891059;28;96797;-48
2023/06/08 07:17:19;;;;;;;10.03;6.53;;;;;;;20.99;49.96;101604.91;4889496;28;97336;-49
2023/06/08 07:19:46;;;;;;;10.77;7.20;;;;;;;21.04;49.87;101603.31;4887420;28;97107;-49
2023/06/08 07:22:11;;;;;;;11.40;7.70;;;;;;;20.98;49.96;101597.81;4885386;28;97276;-48
2023/06/08 07:24:37;;;;;;;10.40;7.50;;;;;;;20.98;50.07;101599.84;4887873;28;97213;-49
2023/06/08 07:27:02;;;;;;;9.47;7.17;;;;;;;21.08;49.93;101593.28;4884850;28;98583;-48
2023/06/08 07:29:28;;;;;;;10.47;7.30;;;;;;;21.20;49.79;101602.19;4887226;28;97137;-48
2023/06/08 07:31:53;;;;;;;9.80;6.73;;;;;;;21.35;49.95;101599.53;4890256;28;96659;-49
2023/06/08 07:34:18;;;;;;;8.20;7.23;;;;;;;21.49;49.59;101592.59;4890594;28;97909;-49
2023/06/08 07:36:44;;;;;;;9.77;6.90;;;;;;;21.60;49.53;101601.44;4888643;28;97728;-48
2023/06/08 07:39:09;;;;;;;9.47;7.13;;;;;;;21.77;49.30;101595.44;4888478;28;97188;-49
2023/06/08 07:41:34;;;;;;;7.47;6.27;;;;;;;21.87;49.23;101601.31;4888268;28;97010;-49
2023/06/08 07:44:01;;;;;;;10.77;7.07;;;;;;;21.85;49.12;101601.13;4887982;28;96885;-49
2023/06/08 07:46:26;;;;;;;8.77;7.20;;;;;;;21.89;49.21;101596.69;4890962;28;97066;-48
2023/06/08 07:48:51;;;;;;;7.47;6.77;;;;;;;22.01;48.96;101597.16;4895013;28;97431;-49
2023/06/08 07:51:17;;;;;;;8.83;6.37;;;;;;;22.06;49.04;101594.19;4889363;28;97545;-49
2023/06/08 07:53:42;;;;;;;8.47;6.37;;;;;;;22.13;48.84;101592.72;4893971;28;96983;-48
2023/06/08 07:56:08;;;;;;;9.13;6.13;;;;;;;22.14;48.70;101597.06;4894250;28;97011;-49
2023/06/08 07:58:33;;;;;;;9.40;6.30;;;;;;;22.19;48.64;101599.69;4893418;28;97277;-49
2023/06/08 08:00:59;;;;;;;8.50;5.80;;;;;;;22.31;48.70;101591.72;4890507;28;104871;-49
2023/06/08 08:03:25;;;;;;;8.23;6.10;;;;;;;22.43;48.60;101594.97;4893264;28;98031;-49
2023/06/08 08:05:51;;;;;;;7.33;6.07;;;;;;;22.49;48.33;101595.56;4894690;28;99811;-49
2023/06/08 08:08:17;;;;;;;6.40;5.60;;;;;;;22.53;48.31;101591.09;4893458;28;97143;-49
2023/06/08 08:10:42;;;;;;;7.20;6.00;;;;;;;22.62;48.14;101601.84;4894301;28;96706;-49
2023/06/08 08:13:08;;;;;;;8.70;6.67;;;;;;;22.67;48.01;101603.72;4892055;28;97433;-49
2023/06/08 08:15:35;;;;;;;8.20;6.60;;;;;;;22.73;47.94;101597.97;4892576;28;97314;-48
2023/06/08 08:18:00;;;;;;;11.03;6.30;;;;;;;22.77;47.69;101601.16;4891718;28;96916;-48
2023/06/08 08:20:26;;;;;;;8.60;6.07;;;;;;;22.80;47.86;101605.66;4892106;28;96759;-49
2023/06/08 08:22:51;;;;;;;8.70;5.70;;;;;;;22.85;47.61;101605.47;4890065;28;96736;-49
2023/06/08 08:25:19;;;;;;;6.70;5.70;;;;;;;22.94;47.65;101612.63;4893858;28;98435;-49
2023/06/08 08:27:44;;;;;;;6.07;5.40;;;;;;;23.02;47.47;101607.81;4890394;28;96941;-49
2023/06/08 08:30:10;;;;;;;6.37;5.63;;;;;;;23.09;47.51;101601.44;4889079;28;96939;-48
2023/06/08 08:32:35;;;;;;;11.53;6.17;;;;;;;23.16;47.42;101605.56;4892994;28;96738;-49
2023/06/08 08:35:01;;;;;;;8.17;5.97;;;;;;;23.24;47.40;101604.28;4892992;28;100621;-48
2023/06/08 08:37:26;;;;;;;7.20;5.53;;;;;;;23.32;47.26;101595.88;4891895;28;97220;-49
2023/06/08 08:39:51;;;;;;;6.17;5.57;;;;;;;23.39;47.28;101595.94;4890847;28;97620;-49
2023/06/08 08:42:26;;;;;;;9.57;6.13;;;;;;;23.47;46.72;101599.50;4893226;28;97135;-48
2023/06/08 08:44:56;;;;;;;8.10;5.80;;;;;;;23.54;46.87;101601.56;4891118;28;97470;-49
2023/06/08 08:47:24;;;;;;;14.93;6.90;;;;;;;23.57;46.89;101594.81;4888489;28;97599;-49
2023/06/08 08:50:06;;;;;;;6.00;5.40;;;;;;;23.66;46.65;101597.06;4892420;28;97536;-48
2023/06/08 08:52:37;;;;;;;6.93;6.23;;;;;;;23.74;46.75;101597.81;4891430;28;97118;-49
2023/06/08 08:55:04;;;;;;;6.90;6.20;;;;;;;23.86;46.76;101584.13;4890042;28;97187;-50
2023/06/08 08:57:31;;;;;;;6.87;5.67;;;;;;;23.99;46.48;101595.16;4892354;28;98531;-49
2023/06/08 08:59:57;;;;;;;7.90;6.27;;;;;;;24.17;46.43;101587.69;4891328;28;97180;-49
2023/06/08 09:02:22;;;;;;;6.73;5.90;;;;;;;24.39;46.46;101584.06;4904473;28;100306;-49
2023/06/08 09:04:48;;;;;;;7.23;6.57;;;;;;;24.64;45.95;101584.91;4892332;28;98903;-49
2023/06/08 09:07:24;;;;;;;8.40;6.03;;;;;;;24.78;45.70;101585.44;4890806;28;97160;-48
2023/06/08 09:10:24;;;;;;;6.57;6.00;;;;;;;24.93;45.40;101572.03;4891315;28;97010;-49
2023/06/08 09:12:51;;;;;;;6.63;6.03;;;;;;;25.03;45.56;101584.16;4886381;28;97036;-49
2023/06/08 09:15:31;;;;;;;9.67;6.73;;;;;;;25.09;45.07;101573.44;4889991;28;97545;-49
2023/06/08 09:17:59;;;;;;;6.70;6.00;;;;;;;25.17;45.26;101573.38;4891632;28;97172;-49
2023/06/08 09:20:31;;;;;;;7.40;6.17;;;;;;;25.18;45.16;101572.81;4890662;28;97157;-50
2023/06/08 09:26:57;;;;;;;8.50;6.03;;;;;;;25.29;44.97;101578.00;4887329;28;97237;-49
2023/06/08 09:29:42;;;;;;;6.03;5.43;;;;;;;25.33;44.90;101574.78;4891811;28;96975;-49
2023/06/08 09:32:12;;;;;;;6.00;5.30;;;;;;;25.48;45.22;101571.88;4890716;28;97349;-49
2023/06/08 09:34:58;;;;;;;7.70;6.20;;;;;;;25.50;44.30;101565.66;4890973;28;97394;-49
2023/06/08 09:37:27;;;;;;;7.20;6.47;;;;;;;25.49;44.61;101569.81;4893021;28;97558;-48
2023/06/08 09:39:53;;;;;;;8.40;6.27;;;;;;;25.35;44.68;101568.56;4892985;28;97283;-48
2023/06/08 09:42:19;;;;;;;9.07;6.77;;;;;;;25.27;45.05;101565.81;4893833;28;96971;-49
2023/06/08 09:44:44;;;;;;;10.87;6.10;;;;;;;25.33;44.89;101565.59;4893100;28;115004;-49
2023/06/08 09:47:27;;;;;;;7.50;6.80;;;;;;;25.31;44.56;101569.72;4895357;28;97476;-48
2023/06/08 09:49:54;;;;;;;6.20;5.60;;;;;;;25.38;44.81;101564.63;4891455;28;97863;-49
2023/06/08 09:52:22;;;;;;;6.70;6.00;;;;;;;25.61;44.71;101565.19;4892063;28;97019;-49
2023/06/08 09:54:48;;;;;;;6.60;5.83;;;;;;;25.99;44.44;101559.97;4891599;28;97213;-48
2023/06/08 09:57:18;;;;;;;6.73;5.93;;;;;;;26.32;43.92;101557.78;4889868;28;97481;-49
2023/06/08 10:00:13;;;;;;;8.63;7.07;;;;;;;26.49;43.16;101561.31;4889133;28;97323;-49
2023/06/08 10:02:46;;;;;;;9.30;6.00;;;;;;;26.62;43.29;101560.97;4893196;28;96819;-49
2023/06/08 10:05:15;;;;;;;7.63;6.03;;;;;;;26.78;43.40;101552.31;4890385;28;97520;-48
2023/06/08 10:07:45;;;;;;;7.13;6.43;;;;;;;26.84;43.08;101549.97;4892827;28;97614;-49
2023/06/08 10:10:17;;;;;;;7.27;5.73;;;;;;;26.99;42.91;101553.34;4890418;28;97119;-49
2023/06/08 10:12:44;;;;;;;7.80;6.00;;;;;;;27.17;42.88;101556.84;4892751;28;97451;-48
2023/06/08 10:15:10;;;;;;;8.27;5.93;;;;;;;27.25;42.71;101558.22;4890436;28;97132;-48
2023/06/08 10:17:36;;;;;;;6.43;5.77;;;;;;;27.37;42.53;101555.59;4891364;28;97400;-50
2023/06/08 10:20:03;;;;;;;7.60;6.80;;;;;;;27.43;42.38;101553.25;4895507;28;97231;-49
2023/06/08 10:22:29;;;;;;;6.53;5.90;;;;;;;27.46;42.23;101549.22;4893341;28;97220;-49
2023/06/08 10:24:55;;;;;;;6.23;5.67;;;;;;;27.54;42.31;101540.63;4892866;28;96924;-49
2023/06/08 10:27:23;;;;;;;7.17;6.10;;;;;;;27.64;42.12;101544.97;4889904;28;97268;-48
2023/06/08 10:29:57;;;;;;;7.00;5.67;;;;;;;27.81;41.31;101539.19;4890830;28;104520;-49
2023/06/08 10:32:38;;;;;;;5.83;5.33;;;;;;;27.91;41.19;101548.47;4891847;28;96737;-49
2023/06/08 10:35:06;;;;;;;7.10;5.60;;;;;;;28.06;41.46;101536.88;4894305;28;97826;-50
2023/06/08 10:37:35;;;;;;;6.57;5.70;;;;;;;28.10;41.31;101542.84;4890917;28;97977;-49
2023/06/08 10:46:45;;;;;;;12.00;5.60;;;;;;;28.24;40.92;101536.72;4872202;28;97411;-50
2023/06/08 10:49:10;;;;;;;7.60;6.00;;;;;;;28.34;40.57;101528.97;4871121;28;108070;-49
2023/06/08 10:51:45;;;;;;;6.23;4.93;;;;;;;28.50;40.07;101532.97;4876169;28;109017;-48
2023/06/08 10:54:21;;;;;;;5.53;5.03;;;;;;;28.66;39.70;101517.16;4891829;28;97453;-49
2023/06/08 10:56:52;;;;;;;6.40;5.90;;;;;;;28.79;39.94;101522.34;4889377;28;96801;-48
2023/06/08 10:59:21;;;;;;;6.30;5.70;;;;;;;28.90;39.83;101516.78;4891462;28;97112;-50
2023/06/08 11:01:47;;;;;;;6.07;4.90;;;;;;;29.01;39.87;101515.41;4890892;28;97125;-49
2023/06/08 11:04:13;;;;;;;6.53;5.27;;;;;;;29.12;39.42;101516.84;4889391;28;97287;-49
2023/06/08 11:06:39;;;;;;;6.57;5.20;;;;;;;29.22;39.27;101514.75;4891610;28;97028;-49
2023/06/08 11:09:04;;;;;;;5.47;4.97;;;;;;;29.32;39.30;101512.63;4889730;28;98596;-49
2023/06/08 11:11:33;;;;;;;6.60;5.20;;;;;;;29.38;38.74;101505.25;4890624;28;105256;-49
2023/06/08 11:14:00;;;;;;;5.90;5.20;;;;;;;29.46;38.53;101503.00;4890254;28;97212;-50
2023/06/08 11:16:26;;;;;;;6.03;5.53;;;;;;;29.51;38.40;101499.06;4889108;28;97699;-48
2023/06/08 11:18:52;;;;;;;6.43;5.83;;;;;;;29.58;38.70;101503.06;4889273;28;98617;-49
2023/06/08 11:21:23;;;;;;;5.97;5.10;;;;;;;29.57;38.07;101490.25;4891293;28;97160;-48
2023/06/08 11:23:48;;;;;;;5.03;4.63;;;;;;;29.38;38.51;101496.75;4894797;28;96745;-49
2023/06/08 11:26:14;;;;;;;6.67;5.80;;;;;;;29.26;38.32;101492.38;4894854;28;96812;-48
2023/06/08 11:28:39;;;;;;;5.83;5.20;;;;;;;29.18;38.34;101492.53;4895360;28;97180;-50
2023/06/08 11:31:09;;;;;;;5.80;5.30;;;;;;;29.20;38.38;101484.19;4895520;28;97359;-49
2023/06/08 11:33:35;;;;;;;5.93;5.33;;;;;;;29.41;38.26;101489.13;4893774;28;96776;-48
2023/06/08 11:36:01;;;;;;;5.37;4.87;;;;;;;29.55;38.24;101479.47;4898865;28;97182;-50